createdAt,value
2023-04-28T00:00:39.122Z,6.40
2023-04-28T00:03:07.130Z,6.30
2023-04-28T00:05:35.360Z,6.70
2023-04-28T00:08:03.533Z,6.40
2023-04-28T00:10:32.376Z,6.70
2023-04-28T00:13:00.507Z,6.40
2023-04-28T00:15:28.425Z,6.30
2023-04-28T00:17:57.676Z,7.20
2023-04-28T00:20:25.553Z,6.90
2023-04-28T00:22:53.441Z,6.30
2023-04-28T00:25:21.306Z,6.50
2023-04-28T00:27:49.163Z,6.50
2023-04-28T00:30:17.265Z,6.40
2023-04-28T00:32:45.272Z,6.30
2023-04-28T00:35:14.516Z,6.90
2023-04-28T00:37:42.954Z,6.60
2023-04-28T00:40:11.865Z,6.90
2023-04-28T00:42:39.800Z,6.40
2023-04-28T00:45:08.536Z,6.40
2023-04-28T00:47:37.779Z,6.40
2023-04-28T00:50:07.241Z,6.70
2023-04-28T00:52:36.815Z,6.30
2023-04-28T00:55:06.118Z,6.50
2023-04-28T00:57:34.015Z,6.30
2023-04-28T01:00:02.150Z,6.70
2023-04-28T01:02:30.727Z,6.50
2023-04-28T01:04:59.061Z,7.20
2023-04-28T01:07:27.005Z,6.40
2023-04-28T01:09:56.299Z,7.00
2023-04-28T01:12:24.577Z,6.40
2023-04-28T01:14:52.686Z,6.90
2023-04-28T01:17:21.258Z,6.60
2023-04-28T01:19:49.175Z,6.70
2023-04-28T01:22:17.037Z,6.70
2023-04-28T01:24:46.285Z,6.60
2023-04-28T01:27:18.963Z,6.50
2023-04-28T01:29:46.803Z,7.00
2023-04-28T01:32:14.729Z,7.20
2023-04-28T01:34:42.620Z,7.00
2023-04-28T01:37:10.634Z,7.40
2023-04-28T01:39:38.545Z,6.50
2023-04-28T01:42:07.950Z,6.90
2023-04-28T01:44:35.773Z,6.60
2023-04-28T01:47:03.672Z,7.40
2023-04-28T01:49:32.177Z,6.70
2023-04-28T01:52:00.030Z,8.00
2023-04-28T01:54:28.250Z,6.90
2023-04-28T01:56:56.160Z,6.70
2023-04-28T01:59:25.421Z,6.80
2023-04-28T02:01:53.360Z,6.60
2023-04-28T02:04:21.332Z,7.20
2023-04-28T02:06:49.200Z,6.80
2023-04-28T02:09:17.127Z,7.20
2023-04-28T02:11:45.296Z,6.90
2023-04-28T02:14:13.295Z,7.00
2023-04-28T02:16:42.613Z,6.70
2023-04-28T02:19:10.479Z,6.80
2023-04-28T02:21:38.369Z,6.80
2023-04-28T02:24:07.702Z,6.60
2023-04-28T02:26:35.799Z,6.60
2023-04-28T02:29:04.615Z,6.80
2023-04-28T02:31:32.971Z,7.50
2023-04-28T02:34:02.614Z,6.90
2023-04-28T02:36:31.880Z,7.30
2023-04-28T02:38:59.852Z,6.70
2023-04-28T02:41:27.869Z,6.70
2023-04-28T02:43:56.811Z,6.50
2023-04-28T02:46:24.744Z,6.50
2023-04-28T02:48:52.660Z,6.50
2023-04-28T02:51:21.923Z,6.60
2023-04-28T02:53:49.812Z,6.50
2023-04-28T02:56:17.952Z,6.30
2023-04-28T02:58:45.835Z,6.70
2023-04-28T03:01:13.692Z,6.80
2023-04-28T03:03:41.704Z,6.30
2023-04-28T03:06:09.633Z,6.50
2023-04-28T03:08:38.964Z,6.30
2023-04-28T03:11:06.899Z,6.30
2023-04-28T03:13:35.878Z,6.20
2023-04-28T03:16:03.857Z,6.50
2023-04-28T03:18:31.702Z,6.40
2023-04-28T03:20:59.602Z,6.10
2023-04-28T03:23:27.407Z,6.20
2023-04-28T03:25:56.633Z,6.00
2023-04-28T03:28:24.499Z,6.40
2023-04-28T03:30:52.372Z,6.10
2023-04-28T03:33:20.251Z,6.20
2023-04-28T03:35:48.149Z,6.20
2023-04-28T03:38:16.350Z,6.70
2023-04-28T03:40:44.190Z,6.20
2023-04-28T03:43:13.643Z,6.10
2023-04-28T03:45:41.922Z,6.10
2023-04-28T03:48:09.976Z,6.50
2023-04-28T03:50:37.974Z,6.00
2023-04-28T03:53:06.062Z,6.50
2023-04-28T03:55:34.100Z,6.40
2023-04-28T03:58:02.260Z,6.10
2023-04-28T04:00:31.991Z,6.00
2023-04-28T04:03:00.084Z,6.10
2023-04-28T04:05:28.284Z,6.10
2023-04-28T04:07:56.253Z,6.20
2023-04-28T04:10:24.117Z,6.40
2023-04-28T04:12:52.010Z,6.90
2023-04-28T04:15:19.847Z,6.40
2023-04-28T04:17:49.205Z,6.00
2023-04-28T04:20:17.141Z,6.90
2023-04-28T04:22:44.971Z,6.60
2023-04-28T04:25:12.810Z,6.10
2023-04-28T04:27:41.032Z,6.40
2023-04-28T04:30:10.050Z,6.40
2023-04-28T04:32:37.996Z,6.30
2023-04-28T04:35:07.874Z,6.40
2023-04-28T04:37:35.754Z,6.30
2023-04-28T04:40:03.984Z,6.40
2023-04-28T04:42:31.884Z,6.40
2023-04-28T04:44:59.713Z,6.40
2023-04-28T04:47:28.196Z,6.90
2023-04-28T04:49:56.458Z,6.50
2023-04-28T04:52:25.690Z,6.90
2023-04-28T04:54:53.534Z,6.90
2023-04-28T04:57:21.588Z,6.60
2023-04-28T04:59:49.437Z,6.80
2023-04-28T05:02:17.491Z,8.00
2023-04-28T05:04:45.555Z,6.70
2023-04-28T05:07:13.725Z,6.90
2023-04-28T05:09:43.008Z,6.90
2023-04-28T05:12:10.857Z,6.90
2023-04-28T05:14:38.714Z,7.00
2023-04-28T05:17:06.646Z,9.20
2023-04-28T05:19:34.542Z,7.60
2023-04-28T05:22:02.446Z,7.00
2023-04-28T05:24:30.329Z,7.10
2023-04-28T05:27:00.350Z,7.70
2023-04-28T05:29:28.330Z,7.70
2023-04-28T05:31:56.303Z,8.40
2023-04-28T05:34:24.398Z,7.40
2023-04-28T05:36:53.200Z,7.70
2023-04-28T05:39:21.094Z,8.90
2023-04-28T05:41:48.973Z,8.30
2023-04-28T05:44:18.569Z,8.20
2023-04-28T05:46:46.552Z,8.00
2023-04-28T05:49:14.475Z,8.10
2023-04-28T05:51:42.310Z,8.20
2023-04-28T05:54:10.191Z,8.30
2023-04-28T05:56:38.234Z,8.50
2023-04-28T05:59:06.323Z,8.60
2023-04-28T06:01:35.558Z,8.80
2023-04-28T06:04:03.698Z,8.80
2023-04-28T06:06:32.165Z,9.00
2023-04-28T06:09:00.115Z,9.10
2023-04-28T06:11:27.991Z,9.10
2023-04-28T06:13:55.898Z,9.50
2023-04-28T06:16:24.307Z,9.70
2023-04-28T06:18:53.716Z,9.80
2023-04-28T06:21:22.180Z,9.70
2023-04-28T06:23:50.101Z,9.80
2023-04-28T06:26:18.525Z,10.70
2023-04-28T06:28:46.707Z,11.60
2023-04-28T06:31:14.915Z,10.50
2023-04-28T06:33:42.872Z,10.10
2023-04-28T06:36:13.908Z,10.20
2023-04-28T06:38:42.917Z,10.20
2023-04-28T06:41:11.244Z,10.60
2023-04-28T06:43:39.488Z,10.50
2023-04-28T06:46:08.051Z,10.50
2023-04-28T06:48:36.077Z,10.70
2023-04-28T06:51:04.037Z,10.70
2023-04-28T06:53:33.633Z,10.80
2023-04-28T06:56:02.512Z,10.60
2023-04-28T06:58:30.486Z,10.50
2023-04-28T07:00:58.421Z,11.00
2023-04-28T07:03:27.521Z,10.40
2023-04-28T07:05:55.619Z,11.70
2023-04-28T07:08:23.568Z,10.60
2023-04-28T07:10:52.808Z,10.10
2023-04-28T07:13:20.724Z,10.60
2023-04-28T07:15:48.663Z,10.70
2023-04-28T07:18:16.887Z,12.30
2023-04-28T07:20:44.785Z,10.80
2023-04-28T07:23:12.634Z,10.70
2023-04-28T07:25:41.206Z,10.90
2023-04-28T07:28:10.883Z,11.20
2023-04-28T07:30:38.739Z,11.30
2023-04-28T07:33:06.797Z,11.40
2023-04-28T07:35:34.954Z,11.40
2023-04-28T07:38:03.842Z,11.70
2023-04-28T07:40:31.779Z,11.70
2023-04-28T07:42:59.792Z,11.90
2023-04-28T07:45:29.037Z,12.30
2023-04-28T07:47:56.979Z,12.60
2023-04-28T07:50:25.063Z,12.90
2023-04-28T07:52:53.639Z,12.40
2023-04-28T07:55:21.592Z,12.50
2023-04-28T07:57:49.604Z,12.60
2023-04-28T08:00:19.239Z,12.60
2023-04-28T08:02:48.667Z,12.80
2023-04-28T08:05:18.248Z,12.70
2023-04-28T08:07:46.312Z,12.80
2023-04-28T08:10:14.242Z,12.60
2023-04-28T08:12:42.120Z,13.00
2023-04-28T08:15:11.056Z,13.40
2023-04-28T08:17:39.273Z,13.30
2023-04-28T08:20:10.731Z,13.50
2023-04-28T08:22:38.651Z,13.50
2023-04-28T08:25:07.515Z,13.60
2023-04-28T08:27:37.953Z,13.60
2023-04-28T08:30:06.919Z,13.60
2023-04-28T08:32:35.038Z,13.50
2023-04-28T08:35:03.390Z,13.50
2023-04-28T08:37:32.932Z,14.40
2023-04-28T08:40:09.279Z,13.90
2023-04-28T08:42:38.252Z,13.60
2023-04-28T08:45:07.160Z,13.50
2023-04-28T08:47:37.027Z,13.70
2023-04-28T08:50:06.592Z,14.00
2023-04-28T08:52:36.597Z,13.50
2023-04-28T08:55:09.523Z,14.10
2023-04-28T08:57:41.331Z,13.40
2023-04-28T09:00:11.027Z,13.20
2023-04-28T09:02:42.105Z,13.10
2023-04-28T09:05:11.185Z,13.40
2023-04-28T09:07:41.052Z,13.30
2023-04-28T09:10:20.010Z,13.30
2023-04-28T09:12:48.939Z,13.60
2023-04-28T09:15:33.198Z,14.50
2023-04-28T09:18:03.078Z,13.60
2023-04-28T09:20:32.195Z,14.20
2023-04-28T09:23:16.393Z,14.40
2023-04-28T09:25:58.354Z,13.20
2023-04-28T09:28:26.591Z,13.30
2023-04-28T09:30:55.602Z,13.30
2023-04-28T09:33:23.578Z,13.30
2023-04-28T09:35:51.874Z,14.90
2023-04-28T09:38:22.274Z,13.40
2023-04-28T09:40:56.014Z,13.10
2023-04-28T09:43:28.801Z,14.20
2023-04-28T09:45:57.737Z,13.00
2023-04-28T09:48:30.852Z,13.20
2023-04-28T09:50:59.332Z,13.30
2023-04-28T09:53:29.500Z,13.50
2023-04-28T09:55:58.977Z,14.00
2023-04-28T09:58:28.667Z,13.40
2023-04-28T10:00:57.959Z,14.50
2023-04-28T10:03:29.385Z,13.90
2023-04-28T10:05:59.601Z,14.70
2023-04-28T10:08:29.511Z,14.00
2023-04-28T10:10:58.482Z,14.00
2023-04-28T10:13:26.642Z,14.40
2023-04-28T10:15:55.996Z,14.60
2023-04-28T10:18:24.640Z,14.80
2023-04-28T10:20:58.264Z,14.80
2023-04-28T10:24:00.570Z,14.60
2023-04-28T10:26:56.489Z,14.50
2023-04-28T10:29:25.762Z,14.40
2023-04-28T10:32:18.292Z,15.50
2023-04-28T10:34:47.014Z,14.90
2023-04-28T10:37:16.007Z,15.60
2023-04-28T10:40:17.209Z,16.10
2023-04-28T10:42:57.227Z,15.50
2023-04-28T10:46:02.065Z,16.20
2023-04-28T10:48:56.177Z,15.50
2023-04-28T10:51:31.831Z,15.50
2023-04-28T10:54:19.920Z,15.40
2023-04-28T10:57:21.443Z,15.90
2023-04-28T10:59:51.577Z,15.50
2023-04-28T11:02:44.463Z,15.30
2023-04-28T11:05:21.644Z,15.20
2023-04-28T11:08:29.874Z,15.40
2023-04-28T11:11:20.674Z,15.20
2023-04-28T11:13:49.378Z,15.20
2023-04-28T11:16:20.689Z,16.50
2023-04-28T11:18:57.446Z,15.70
2023-04-28T11:21:28.139Z,15.70
2023-04-28T11:23:56.371Z,15.70
2023-04-28T11:26:24.648Z,14.80
2023-04-28T11:28:54.009Z,14.50
2023-04-28T11:31:25.137Z,14.60
2023-04-28T11:33:57.654Z,15.70
2023-04-28T11:36:33.544Z,14.30
2023-04-28T11:39:01.445Z,14.20
2023-04-28T11:41:29.379Z,14.10
2023-04-28T11:43:57.334Z,15.00
2023-04-28T11:46:27.589Z,14.30
2023-04-28T11:49:04.417Z,14.40
2023-04-28T11:51:34.479Z,14.60
2023-04-28T11:54:03.779Z,14.90
2023-04-28T11:56:32.688Z,14.60
2023-04-28T11:59:05.339Z,14.90
2023-04-28T12:01:37.310Z,16.20
2023-04-28T12:04:05.543Z,15.00
2023-04-28T12:06:33.696Z,14.30
2023-04-28T12:09:04.504Z,15.00
2023-04-28T12:11:32.444Z,16.00
2023-04-28T12:14:11.684Z,14.40
2023-04-28T12:16:45.021Z,15.70
2023-04-28T12:19:15.185Z,14.40
2023-04-28T12:21:43.653Z,15.80
2023-04-28T12:24:22.880Z,14.60
2023-04-28T12:26:50.855Z,14.70
2023-04-28T12:29:40.924Z,15.10
2023-04-28T12:32:11.722Z,15.40
2023-04-28T12:34:41.445Z,16.00
2023-04-28T12:37:09.341Z,15.70
2023-04-28T12:39:39.662Z,17.50
2023-04-28T12:42:08.411Z,16.50
2023-04-28T12:44:37.681Z,16.30
2023-04-28T12:47:07.397Z,17.30
2023-04-28T12:49:37.195Z,17.70
2023-04-28T12:52:06.650Z,18.30
2023-04-28T12:54:34.593Z,17.30
2023-04-28T12:57:02.951Z,17.70
2023-04-28T12:59:32.653Z,17.40
2023-04-28T13:02:00.746Z,18.10
2023-04-28T13:04:28.999Z,17.60
2023-04-28T13:06:59.455Z,17.50
2023-04-28T13:09:27.775Z,17.60
2023-04-28T13:11:55.705Z,18.40
2023-04-28T13:14:24.049Z,17.80
2023-04-28T13:16:53.120Z,18.00
2023-04-28T13:19:20.977Z,18.30
2023-04-28T13:21:48.818Z,18.30
2023-04-28T13:24:18.077Z,18.20
2023-04-28T13:26:46.285Z,17.90
2023-04-28T13:29:14.677Z,18.40
2023-04-28T13:31:42.807Z,18.00
2023-04-28T13:34:15.913Z,18.00
2023-04-28T13:36:44.379Z,18.60
2023-04-28T13:39:14.492Z,18.10
2023-04-28T13:41:44.117Z,17.80
2023-04-28T13:44:11.994Z,17.80
2023-04-28T13:46:39.889Z,17.70
2023-04-28T13:49:07.784Z,17.60
2023-04-28T13:51:35.692Z,18.60
2023-04-28T13:54:04.458Z,18.70
2023-04-28T13:56:32.857Z,17.90
2023-04-28T13:59:02.077Z,18.60
2023-04-28T14:01:30.306Z,18.50
2023-04-28T14:03:58.351Z,17.90
2023-04-28T14:06:27.616Z,18.00
2023-04-28T14:08:55.449Z,18.30
2023-04-28T14:11:23.331Z,17.70
2023-04-28T14:13:51.243Z,17.10
2023-04-28T14:16:20.808Z,16.90
2023-04-28T14:18:48.949Z,16.70
2023-04-28T14:21:16.808Z,17.20
2023-04-28T14:23:44.632Z,16.60
2023-04-28T14:26:12.625Z,16.80
2023-04-28T14:28:40.771Z,16.80
2023-04-28T14:31:09.054Z,17.50
2023-04-28T14:33:38.658Z,17.40
2023-04-28T14:36:06.703Z,17.90
2023-04-28T14:38:34.701Z,17.00
2023-04-28T14:41:02.587Z,17.20
2023-04-28T14:43:30.528Z,17.90
2023-04-28T14:45:58.450Z,16.90
2023-04-28T14:48:26.746Z,17.00
2023-04-28T14:50:56.071Z,16.90
2023-04-28T14:53:24.147Z,16.90
2023-04-28T14:55:52.363Z,16.50
2023-04-28T14:58:20.212Z,16.70
2023-04-28T15:00:48.128Z,17.20
2023-04-28T15:03:16.307Z,16.40
2023-04-28T15:05:44.267Z,17.70
2023-04-28T15:08:13.504Z,16.50
2023-04-28T15:10:41.482Z,16.60
2023-04-28T15:13:09.338Z,16.50
2023-04-28T15:15:37.454Z,16.30
2023-04-28T15:18:05.630Z,16.30
2023-04-28T15:20:34.586Z,16.70
2023-04-28T15:23:02.510Z,17.10
2023-04-28T15:25:31.972Z,16.30
2023-04-28T15:28:00.339Z,16.50
2023-04-28T15:30:28.270Z,15.80
2023-04-28T15:32:56.179Z,15.50
2023-04-28T15:35:24.104Z,16.50
2023-04-28T15:37:53.282Z,16.70
2023-04-28T15:40:21.353Z,17.30
2023-04-28T15:42:52.571Z,15.30
2023-04-28T15:45:21.757Z,16.60
2023-04-28T15:47:50.587Z,16.90
2023-04-28T15:50:20.291Z,15.10
2023-04-28T15:52:50.031Z,14.90
2023-04-28T15:55:19.591Z,15.40
2023-04-28T15:57:47.874Z,15.50
2023-04-28T16:00:17.605Z,16.00
2023-04-28T16:02:46.623Z,15.70
2023-04-28T16:05:14.713Z,16.50
2023-04-28T16:07:43.637Z,15.20
2023-04-28T16:10:13.531Z,14.80
2023-04-28T16:12:42.073Z,15.20
2023-04-28T16:15:12.212Z,14.80
2023-04-28T16:17:52.315Z,14.80
2023-04-28T16:20:20.901Z,15.60
2023-04-28T16:22:48.813Z,15.00
2023-04-28T16:25:17.213Z,14.50
2023-04-28T16:27:45.104Z,15.80
2023-04-28T16:30:13.184Z,14.90
2023-04-28T16:32:42.633Z,16.10
2023-04-28T16:35:15.300Z,16.70
2023-04-28T16:37:43.969Z,14.70
2023-04-28T16:40:13.324Z,15.20
2023-04-28T16:42:42.038Z,14.80
2023-04-28T16:45:11.221Z,15.30
2023-04-28T16:47:42.210Z,14.70
2023-04-28T16:50:14.352Z,15.90
2023-04-28T16:52:42.299Z,14.70
2023-04-28T16:55:10.753Z,15.40
2023-04-28T16:57:38.702Z,14.60
2023-04-28T17:00:08.466Z,14.60
2023-04-28T17:02:36.641Z,14.60
2023-04-28T17:05:04.917Z,16.10
2023-04-28T17:07:34.152Z,14.50
2023-04-28T17:10:02.124Z,14.60
2023-04-28T17:12:30.155Z,14.90
2023-04-28T17:14:58.064Z,14.10
2023-04-28T17:17:25.998Z,16.50
2023-04-28T17:19:53.962Z,14.70
2023-04-28T17:22:22.085Z,15.30
2023-04-28T17:24:51.666Z,14.10
2023-04-28T17:27:19.500Z,14.10
2023-04-28T17:29:47.354Z,15.90
2023-04-28T17:32:15.227Z,15.70
2023-04-28T17:34:43.202Z,13.90
2023-04-28T17:37:11.185Z,14.50
2023-04-28T17:39:39.183Z,15.50
2023-04-28T17:42:08.556Z,14.40
2023-04-28T17:44:36.552Z,14.50
2023-04-28T17:47:04.464Z,14.90
2023-04-28T17:49:32.381Z,15.40
2023-04-28T17:52:00.272Z,14.30
2023-04-28T17:54:28.185Z,15.40
2023-04-28T17:56:56.084Z,13.90
2023-04-28T17:59:25.524Z,13.80
2023-04-28T18:01:56.093Z,14.80
2023-04-28T18:04:24.090Z,13.60
2023-04-28T18:06:52.032Z,14.90
2023-04-28T18:09:19.891Z,13.80
2023-04-28T18:11:47.794Z,14.00
2023-04-28T18:14:18.248Z,14.10
2023-04-28T18:16:47.775Z,13.70
2023-04-28T18:19:16.339Z,14.50
2023-04-28T18:21:44.180Z,13.70
2023-04-28T18:24:12.022Z,13.70
2023-04-28T18:26:39.895Z,13.80
2023-04-28T18:29:07.813Z,13.70
2023-04-28T18:31:35.758Z,13.80
2023-04-28T18:34:05.078Z,13.70
2023-04-28T18:36:35.235Z,13.60
2023-04-28T18:39:03.677Z,13.50
2023-04-28T18:41:33.723Z,14.50
2023-04-28T18:44:02.131Z,13.30
2023-04-28T18:46:30.303Z,13.20
2023-04-28T18:48:58.330Z,13.20
2023-04-28T18:51:27.669Z,13.10
2023-04-28T18:53:55.823Z,13.50
2023-04-28T18:56:24.413Z,14.60
2023-04-28T18:58:52.335Z,13.50
2023-04-28T19:01:20.254Z,13.40
2023-04-28T19:03:48.456Z,14.80
2023-04-28T19:06:17.422Z,12.90
2023-04-28T19:08:46.637Z,12.80
2023-04-28T19:11:16.583Z,15.40
2023-04-28T19:13:45.666Z,15.00
2023-04-28T19:16:13.564Z,14.30
2023-04-28T19:18:42.073Z,12.90
2023-04-28T19:21:12.075Z,13.20
2023-04-28T19:23:40.801Z,14.40
2023-04-28T19:26:11.870Z,12.80
2023-04-28T19:28:39.819Z,12.90
2023-04-28T19:31:07.794Z,12.80
2023-04-28T19:33:35.702Z,13.10
2023-04-28T19:36:04.608Z,12.80
2023-04-28T19:38:34.590Z,15.10
2023-04-28T19:41:02.627Z,13.10
2023-04-28T19:43:31.900Z,12.80
2023-04-28T19:45:59.769Z,12.80
2023-04-28T19:48:27.696Z,12.60
2023-04-28T19:50:55.595Z,12.80
2023-04-28T19:53:23.551Z,12.70
2023-04-28T19:55:51.506Z,14.40
2023-04-28T19:58:19.439Z,12.60
2023-04-28T20:00:48.857Z,13.50
2023-04-28T20:03:17.330Z,12.90
2023-04-28T20:05:45.505Z,12.50
2023-04-28T20:08:13.884Z,13.00
2023-04-28T20:10:42.404Z,12.50
2023-04-28T20:13:10.284Z,13.00
2023-04-28T20:15:38.318Z,12.50
2023-04-28T20:18:07.625Z,12.70
2023-04-28T20:20:35.546Z,13.60
2023-04-28T20:23:03.418Z,12.60
2023-04-28T20:25:31.307Z,12.90
2023-04-28T20:27:59.168Z,13.30
2023-04-28T20:30:27.596Z,12.80
2023-04-28T20:32:55.658Z,12.90
2023-04-28T20:35:24.982Z,12.90
2023-04-28T20:37:53.249Z,13.70
2023-04-28T20:40:21.148Z,13.70
2023-04-28T20:42:49.504Z,12.50
2023-04-28T20:45:17.563Z,12.50
2023-04-28T20:47:45.472Z,12.40
2023-04-28T20:50:13.653Z,12.50
2023-04-28T20:52:42.907Z,12.70
2023-04-28T20:55:12.024Z,12.40
2023-04-28T20:57:39.874Z,12.40
2023-04-28T21:00:08.934Z,13.00
2023-04-28T21:02:37.889Z,12.70
2023-04-28T21:05:06.854Z,12.20
2023-04-28T21:07:34.731Z,12.70
2023-04-28T21:10:04.006Z,14.50
2023-04-28T21:12:31.878Z,12.80
2023-04-28T21:15:00.703Z,12.80
2023-04-28T21:17:28.713Z,12.80
2023-04-28T21:19:57.355Z,12.60
2023-04-28T21:22:25.996Z,12.70
2023-04-28T21:24:54.457Z,12.50
2023-04-28T21:27:25.193Z,12.50
2023-04-28T21:29:53.088Z,12.70
2023-04-28T21:32:20.962Z,13.10
2023-04-28T21:34:49.469Z,12.70
2023-04-28T21:37:17.395Z,13.20
2023-04-28T21:39:45.568Z,12.50
2023-04-28T21:42:13.402Z,12.30
2023-04-28T21:44:42.670Z,12.70
2023-04-28T21:47:10.562Z,12.70
2023-04-28T21:49:38.417Z,12.70
2023-04-28T21:52:06.377Z,12.60
2023-04-28T21:54:34.747Z,12.60
2023-04-28T21:57:02.908Z,13.10
2023-04-28T21:59:30.754Z,12.40
2023-04-28T22:02:00.110Z,12.30
2023-04-28T22:04:28.784Z,12.50
2023-04-28T22:06:56.858Z,12.60
2023-04-28T22:09:24.730Z,12.50
2023-04-28T22:11:52.882Z,12.30
2023-04-28T22:14:38.973Z,12.50
2023-04-28T22:17:10.186Z,12.10
2023-04-28T22:19:38.040Z,12.40
2023-04-28T22:22:07.621Z,12.40
2023-04-28T22:24:35.676Z,12.40
2023-04-28T22:27:03.694Z,12.30
2023-04-28T22:29:31.636Z,12.30
2023-04-28T22:31:59.645Z,12.30
2023-04-28T22:34:28.879Z,12.20
2023-04-28T22:36:56.763Z,12.20
2023-04-28T22:39:26.752Z,12.20
2023-04-28T22:41:54.603Z,12.20
2023-04-28T22:44:22.637Z,12.10
2023-04-28T22:46:50.526Z,12.10
2023-04-28T22:49:21.043Z,12.10
2023-04-28T22:51:50.213Z,12.00
2023-04-28T22:54:18.049Z,12.00
2023-04-28T22:56:45.946Z,11.70
2023-04-28T22:59:13.788Z,12.00
2023-04-28T23:01:41.686Z,12.00
2023-04-28T23:04:09.873Z,12.00
2023-04-28T23:06:38.655Z,12.00
2023-04-28T23:09:07.883Z,12.00
2023-04-28T23:11:35.788Z,12.60
2023-04-28T23:14:03.672Z,11.60
2023-04-28T23:16:31.656Z,11.60
2023-04-28T23:18:59.668Z,11.80
2023-04-28T23:21:28.665Z,11.80
2023-04-28T23:23:56.490Z,11.40
2023-04-28T23:26:26.117Z,11.80
2023-04-28T23:28:54.037Z,11.80
2023-04-28T23:31:22.079Z,11.80
2023-04-28T23:33:49.915Z,11.80
2023-04-28T23:36:17.818Z,11.40
2023-04-28T23:38:45.668Z,12.10
2023-04-28T23:41:13.731Z,11.70
2023-04-28T23:43:43.190Z,11.60
2023-04-28T23:46:11.166Z,11.60
2023-04-28T23:48:39.129Z,11.40
2023-04-28T23:51:07.071Z,11.70
2023-04-28T23:53:34.945Z,11.70
2023-04-28T23:56:02.791Z,11.60
2023-04-28T23:58:31.443Z,11.40
